Time;durP1;ratioP1;P1;durP2;ratioP2;P2;SDS_P1;SDS_P2;PMS_P1;PMS_P2;Temp;Humidity;BMP_temperature;BMP_pressure;BME280_temperature;BME280_humidity;BME280_pressure;Samples;Min_cycle;Max_cycle;Signal;HPM_P1;HPM_P2
2022/05/26 00:02:03;;;;;;;76.20;38.30;;;10.20;99.90;;;;;;4405335;28;657092;-70
2022/05/26 00:04:50;;;;;;;92.20;38.40;;;10.20;99.90;;;;;;4406374;28;656733;-71
2022/05/26 00:07:38;;;;;;;72.97;36.17;;;10.20;99.90;;;;;;4425211;28;657476;-70
2022/05/26 00:10:25;;;;;;;67.90;34.50;;;10.20;99.90;;;;;;4407736;28;656692;-71
2022/05/26 00:13:12;;;;;;;79.07;36.27;;;10.20;99.90;;;;;;4424613;28;657149;-70
2022/05/26 00:16:02;;;;;;;76.07;36.67;;;10.30;99.90;;;;;;4423539;28;657018;-71
2022/05/26 00:18:49;;;;;;;79.00;36.90;;;10.30;99.90;;;;;;4426186;28;656322;-70
2022/05/26 00:21:36;;;;;;;79.13;36.50;;;10.30;99.90;;;;;;4407777;28;657079;-70
2022/05/26 00:24:23;;;;;;;65.27;31.90;;;10.30;99.90;;;;;;4425917;28;657390;-70
2022/05/26 00:27:11;;;;;;;65.90;32.57;;;10.20;99.90;;;;;;4407476;28;656513;-70
2022/05/26 00:29:58;;;;;;;68.17;32.20;;;10.20;99.90;;;;;;4425369;28;657295;-70
2022/05/26 00:32:47;;;;;;;78.07;32.77;;;10.20;99.90;;;;;;4407921;28;657236;-70
2022/05/26 00:35:36;;;;;;;59.60;33.13;;;10.20;99.90;;;;;;4420038;28;656835;-72
2022/05/26 00:38:23;;;;;;;62.17;32.17;;;10.10;99.90;;;;;;4428370;28;656683;-70
2022/05/26 00:41:12;;;;;;;64.07;31.13;;;10.00;99.90;;;;;;4412166;28;657359;-71
2022/05/26 00:43:59;;;;;;;56.97;28.10;;;10.00;99.90;;;;;;4423662;28;656406;-70
2022/05/26 00:46:49;;;;;;;50.30;27.30;;;10.00;99.90;;;;;;4409320;28;656596;-70
2022/05/26 00:49:41;;;;;;;51.93;27.07;;;10.00;99.90;;;;;;4406755;28;656956;-70
2022/05/26 00:52:29;;;;;;;49.23;26.97;;;10.10;99.90;;;;;;4401672;28;657128;-70
2022/05/26 00:55:19;;;;;;;53.13;26.87;;;9.90;99.90;;;;;;4406904;28;656643;-71
2022/05/26 00:58:10;;;;;;;54.20;26.57;;;9.90;99.90;;;;;;4408480;28;655239;-70
2022/05/26 01:00:57;;;;;;;54.63;28.03;;;9.80;99.90;;;;;;4408735;28;655883;-70
2022/05/26 01:03:46;;;;;;;63.30;28.73;;;9.70;99.90;;;;;;4427677;28;655445;-71
2022/05/26 01:06:36;;;;;;;56.10;27.70;;;9.60;99.90;;;;;;4404162;28;655607;-70
2022/05/26 01:09:23;;;;;;;51.07;26.57;;;9.50;99.90;;;;;;4407047;28;655632;-70
2022/05/26 01:12:11;;;;;;;50.33;26.90;;;9.50;99.90;;;;;;4411053;28;655572;-70
2022/05/26 01:14:59;;;;;;;48.00;25.83;;;9.30;99.90;;;;;;4430316;28;655800;-70
2022/05/26 01:17:50;;;;;;;47.53;24.67;;;9.20;99.90;;;;;;4407469;28;655355;-70
2022/05/26 01:20:51;;;;;;;46.10;23.33;;;9.30;99.90;;;;;;4409066;28;657566;-71
2022/05/26 01:24:00;;;;;;;45.20;22.20;;;9.30;99.90;;;;;;4403923;28;655914;-71
2022/05/26 01:27:15;;;;;;;46.67;25.33;;;9.30;99.90;;;;;;4382900;28;655731;-70
2022/05/26 01:30:20;;;;;;;46.17;23.23;;;9.10;99.90;;;;;;4382886;28;656328;-70
2022/05/26 01:33:22;;;;;;;42.55;22.10;;;9.30;99.90;;;;;;4380369;28;656090;-70
2022/05/26 01:36:18;;;;;;;37.85;20.80;;;9.20;99.90;;;;;;4412553;28;654867;-70
2022/05/26 01:39:11;;;;;;;44.30;21.87;;;9.20;99.90;;;;;;4396115;28;655594;-72
2022/05/26 01:42:16;;;;;;;43.87;23.07;;;9.30;99.90;;;;;;4410759;28;656261;-71
2022/05/26 01:45:06;;;;;;;35.73;19.93;;;9.10;99.90;;;;;;4407602;28;656086;-70
2022/05/26 01:47:57;;;;;;;41.57;21.83;;;9.30;99.90;;;;;;4407220;28;656073;-70
2022/05/26 01:50:49;;;;;;;37.83;20.77;;;9.20;99.90;;;;;;4426347;28;655205;-71
2022/05/26 01:53:39;;;;;;;36.33;20.83;;;9.20;99.90;;;;;;4408157;28;655657;-71
2022/05/26 01:56:27;;;;;;;35.70;20.43;;;9.10;99.90;;;;;;4405044;28;655398;-71
2022/05/26 01:59:17;;;;;;;34.33;20.23;;;9.20;99.90;;;;;;4429075;28;655624;-70
2022/05/26 02:02:06;;;;;;;34.10;19.13;;;9.20;99.90;;;;;;4410764;28;655498;-70
2022/05/26 02:04:55;;;;;;;37.47;20.37;;;9.20;99.90;;;;;;4406390;28;656786;-71
2022/05/26 02:07:46;;;;;;;34.97;20.00;;;9.00;99.90;;;;;;4409761;28;656568;-70
2022/05/26 02:10:34;;;;;;;37.47;19.00;;;9.00;99.90;;;;;;4405068;28;656854;-70
2022/05/26 02:13:23;;;;;;;40.53;21.27;;;9.00;99.90;;;;;;4409650;28;655704;-71
2022/05/26 02:16:12;;;;;;;35.53;19.93;;;9.00;99.90;;;;;;4423369;28;655386;-71
2022/05/26 02:19:01;;;;;;;33.47;20.17;;;9.20;99.90;;;;;;4426312;28;655831;-71
2022/05/26 02:21:50;;;;;;;40.60;19.77;;;9.10;99.90;;;;;;4411217;28;656652;-71
2022/05/26 02:24:40;;;;;;;42.60;21.00;;;9.20;99.90;;;;;;4408428;28;656061;-70
2022/05/26 02:27:28;;;;;;;38.77;20.43;;;9.20;99.90;;;;;;4411126;28;657062;-70
2022/05/26 02:30:15;;;;;;;40.40;20.33;;;9.10;99.90;;;;;;4420641;28;656965;-71
2022/05/26 02:33:02;;;;;;;34.57;18.90;;;9.00;99.90;;;;;;4434398;28;655881;-70
2022/05/26 02:35:51;;;;;;;37.70;19.67;;;8.80;99.90;;;;;;4434180;28;655219;-69
2022/05/26 02:38:39;;;;;;;35.97;19.10;;;9.00;99.90;;;;;;4404271;28;656508;-70
2022/05/26 02:41:28;;;;;;;36.87;18.47;;;9.10;99.90;;;;;;4412760;28;655905;-71
2022/05/26 02:44:15;;;;;;;32.03;17.63;;;9.00;99.90;;;;;;4421141;28;655898;-70
2022/05/26 02:47:14;;;;;;;32.13;16.53;;;8.70;99.90;;;;;;4433349;28;655869;-70
2022/05/26 02:50:09;;;;;;;33.13;18.00;;;8.90;99.90;;;;;;4408977;28;656178;-70
2022/05/26 02:53:03;;;;;;;39.97;18.20;;;8.80;99.90;;;;;;4406054;28;655021;-70
2022/05/26 02:56:00;;;;;;;33.67;18.70;;;8.70;99.90;;;;;;4384122;28;656225;-71
2022/05/26 02:58:52;;;;;;;36.77;18.43;;;8.60;99.90;;;;;;4406663;28;655879;-70
2022/05/26 03:01:41;;;;;;;45.27;21.33;;;8.50;99.90;;;;;;4406836;28;656043;-70
2022/05/26 03:04:31;;;;;;;43.40;21.65;;;8.70;99.90;;;;;;4407903;28;655693;-70
2022/05/26 03:07:23;;;;;;;42.70;21.53;;;8.70;99.90;;;;;;4413229;28;655473;-71
2022/05/26 03:10:10;;;;;;;39.23;21.20;;;8.60;99.90;;;;;;4398791;28;655584;-71
2022/05/26 03:12:59;;;;;;;47.30;22.33;;;8.50;99.90;;;;;;4425439;28;656830;-71
2022/05/26 03:15:48;;;;;;;46.30;23.30;;;8.50;99.90;;;;;;4410682;28;655495;-70
2022/05/26 03:18:35;;;;;;;38.77;23.57;;;8.60;99.90;;;;;;4419381;28;655262;-71
2022/05/26 03:21:22;;;;;;;43.23;22.20;;;8.50;99.90;;;;;;4430466;28;656100;-70
2022/05/26 03:24:10;;;;;;;44.20;23.93;;;8.50;99.90;;;;;;4429313;28;655351;-71
2022/05/26 03:26:57;;;;;;;43.50;24.43;;;8.60;99.90;;;;;;4431948;28;656185;-70
2022/05/26 03:29:44;;;;;;;38.90;22.23;;;8.40;99.90;;;;;;4429894;28;655931;-70
2022/05/26 03:32:33;;;;;;;43.33;22.83;;;8.40;99.90;;;;;;4410139;28;655774;-70
2022/05/26 03:41:29;;;;;;;41.03;20.93;;;8.50;99.90;;;;;;4378231;28;655786;-70
2022/05/26 03:44:16;;;;;;;45.80;23.50;;;8.50;99.90;;;;;;4411717;28;655827;-69
2022/05/26 03:47:04;;;;;;;37.63;22.50;;;8.50;99.90;;;;;;4428459;28;656334;-71
2022/05/26 03:49:52;;;;;;;43.07;23.03;;;8.60;99.90;;;;;;4412210;28;655769;-70
2022/05/26 03:52:40;;;;;;;40.37;22.57;;;8.70;99.90;;;;;;4429084;28;656428;-71
2022/05/26 03:55:27;;;;;;;42.67;22.07;;;8.70;99.90;;;;;;4429781;28;655561;-70
2022/05/26 03:58:14;;;;;;;35.03;21.90;;;8.80;99.90;;;;;;4433905;28;654593;-70
2022/05/26 04:01:02;;;;;;;36.77;18.77;;;8.90;99.90;;;;;;4409354;28;655234;-71
2022/05/26 04:03:49;;;;;;;30.27;18.30;;;9.00;99.90;;;;;;4428539;28;655418;-70
2022/05/26 04:06:38;;;;;;;35.87;18.93;;;9.20;99.90;;;;;;4411701;28;655703;-70
2022/05/26 04:09:25;;;;;;;31.07;18.03;;;9.30;99.90;;;;;;4412623;28;656468;-71
2022/05/26 04:12:12;;;;;;;27.97;15.27;;;9.60;99.90;;;;;;4433702;28;655551;-70
2022/05/26 04:15:00;;;;;;;24.90;15.67;;;9.80;99.90;;;;;;4426673;28;655936;-71
2022/05/26 04:17:47;;;;;;;31.10;15.80;;;9.90;99.90;;;;;;4433899;28;655188;-70
2022/05/26 04:20:34;;;;;;;31.33;16.40;;;9.90;99.90;;;;;;4428270;28;655270;-70
2022/05/26 04:23:23;;;;;;;24.07;14.57;;;10.00;99.90;;;;;;4411672;28;656091;-70
2022/05/26 04:26:10;;;;;;;19.87;13.33;;;10.10;99.90;;;;;;4408361;28;656219;-71
2022/05/26 04:29:13;;;;;;;22.70;13.17;;;10.00;99.90;;;;;;4425822;28;657548;-71
2022/05/26 04:32:01;;;;;;;24.67;13.73;;;10.10;99.90;;;;;;4383722;28;656965;-70
2022/05/26 04:34:48;;;;;;;25.87;14.30;;;10.20;99.90;;;;;;4431489;28;657637;-69
2022/05/26 04:37:35;;;;;;;26.37;14.20;;;10.20;99.90;;;;;;4400866;28;656319;-70
2022/05/26 04:40:24;;;;;;;22.47;13.73;;;10.10;99.90;;;;;;4428128;28;658059;-70
2022/05/26 04:43:11;;;;;;;22.67;14.27;;;10.20;99.90;;;;;;4409732;28;656855;-70
2022/05/26 04:45:58;;;;;;;21.87;13.07;;;10.20;99.90;;;;;;4429717;28;657440;-71
2022/05/26 04:48:46;;;;;;;22.17;14.03;;;10.20;99.90;;;;;;4411336;28;656678;-70
2022/05/26 04:51:34;;;;;;;21.53;12.63;;;10.10;99.90;;;;;;4432064;28;657282;-70
2022/05/26 04:54:21;;;;;;;21.80;12.33;;;10.20;99.90;;;;;;4409280;28;657644;-70
2022/05/26 04:57:09;;;;;;;18.77;12.83;;;10.30;99.90;;;;;;4430533;28;656984;-70
2022/05/26 04:59:57;;;;;;;22.83;14.13;;;10.50;99.90;;;;;;4412840;28;656677;-70
2022/05/26 05:02:44;;;;;;;26.27;14.77;;;10.70;99.90;;;;;;4436056;28;656426;-70
2022/05/26 05:05:31;;;;;;;25.73;14.50;;;11.00;99.90;;;;;;4412638;28;656831;-69
2022/05/26 05:08:18;;;;;;;22.87;13.10;;;11.10;99.90;;;;;;4437618;28;657652;-70
2022/05/26 05:11:05;;;;;;;17.27;11.77;;;11.50;99.90;;;;;;4411126;28;657092;-70
2022/05/26 05:13:54;;;;;;;17.67;10.90;;;11.60;99.90;;;;;;4428652;28;658199;-70
2022/05/26 05:16:43;;;;;;;18.90;11.23;;;11.80;99.90;;;;;;4411658;28;657147;-70
2022/05/26 05:19:30;;;;;;;15.70;10.33;;;11.80;99.90;;;;;;4412381;28;657326;-70
2022/05/26 05:22:19;;;;;;;14.30;10.07;;;12.00;99.90;;;;;;4435962;28;658010;-69
2022/05/26 05:25:09;;;;;;;14.53;9.87;;;12.10;99.90;;;;;;4412986;28;656416;-69
2022/05/26 05:27:58;;;;;;;13.73;9.07;;;12.30;99.90;;;;;;4410622;28;656158;-70
2022/05/26 05:30:49;;;;;;;14.00;9.87;;;12.30;99.90;;;;;;4414012;28;656163;-69
2022/05/26 05:33:39;;;;;;;19.67;9.47;;;12.40;99.90;;;;;;4412069;28;655868;-69
2022/05/26 05:36:28;;;;;;;15.07;9.43;;;12.50;99.90;;;;;;4411656;28;655475;-68
2022/05/26 05:39:15;;;;;;;10.07;6.13;;;12.50;99.90;;;;;;4419537;28;655463;-70
2022/05/26 05:42:03;;;;;;;20.23;12.70;;;12.50;99.90;;;;;;4432354;28;655387;-69
2022/05/26 05:44:51;;;;;;;17.50;8.87;;;12.60;99.90;;;;;;4411756;28;655987;-70
2022/05/26 05:47:39;;;;;;;17.07;11.30;;;12.70;99.90;;;;;;4432544;28;656440;-69
2022/05/26 05:50:26;;;;;;;18.60;11.90;;;12.80;99.90;;;;;;4410347;28;657536;-69
2022/05/26 05:53:15;;;;;;;15.50;9.37;;;12.90;99.90;;;;;;4432011;28;656324;-69
2022/05/26 05:56:02;;;;;;;16.33;10.17;;;13.00;99.90;;;;;;4404558;28;656126;-69
2022/05/26 05:58:50;;;;;;;14.37;9.10;;;13.10;99.90;;;;;;4430536;28;656907;-69
2022/05/26 06:01:37;;;;;;;12.07;7.60;;;13.30;99.90;;;;;;4406616;28;655412;-69
2022/05/26 06:04:26;;;;;;;17.00;10.10;;;13.40;99.90;;;;;;4429869;28;656244;-69
2022/05/26 06:07:14;;;;;;;12.87;9.07;;;13.40;99.90;;;;;;4404298;28;657334;-69
2022/05/26 06:10:03;;;;;;;10.77;6.13;;;13.50;99.90;;;;;;4404587;28;655680;-68
2022/05/26 06:12:50;;;;;;;11.35;7.47;;;13.50;99.90;;;;;;4411597;28;655892;-70
2022/05/26 06:15:40;;;;;;;11.53;7.47;;;13.50;99.90;;;;;;4430276;28;655778;-69
2022/05/26 06:18:27;;;;;;;13.33;7.00;;;13.70;99.90;;;;;;4416237;28;655517;-69
2022/05/26 06:21:16;;;;;;;8.00;6.17;;;13.90;99.90;;;;;;4428352;28;656323;-68
2022/05/26 06:24:04;;;;;;;13.03;7.10;;;13.80;99.90;;;;;;4401548;28;655902;-68
2022/05/26 06:26:51;;;;;;;9.87;6.83;;;13.90;99.90;;;;;;4407679;28;655298;-70
2022/05/26 06:29:49;;;;;;;10.63;5.53;;;14.10;99.90;;;;;;4428659;28;655024;-69
2022/05/26 06:38:58;;;;;;;9.07;6.47;;;14.40;99.90;;;;;;4378887;28;656320;-70
2022/05/26 06:44:50;;;;;;;6.50;5.00;;;14.80;99.90;;;;;;4392456;28;655987;-69
2022/05/26 06:47:38;;;;;;;8.30;5.23;;;14.90;99.90;;;;;;4429843;28;655007;-69
2022/05/26 06:50:25;;;;;;;7.73;5.20;;;15.00;99.90;;;;;;4424642;28;655042;-70
2022/05/26 06:53:12;;;;;;;7.73;4.70;;;15.30;99.90;;;;;;4433273;28;654224;-69
2022/05/26 06:56:02;;;;;;;8.13;4.80;;;15.10;99.90;;;;;;4428470;28;654200;-69
2022/05/26 06:58:49;;;;;;;7.43;4.37;;;15.30;99.90;;;;;;4429198;28;654545;-69
2022/05/26 07:01:36;;;;;;;8.43;3.63;;;15.50;99.90;;;;;;4407824;28;654385;-70
2022/05/26 07:04:23;;;;;;;8.40;3.67;;;15.80;99.90;;;;;;4429606;28;655388;-69
2022/05/26 07:07:12;;;;;;;6.67;3.60;;;15.80;99.90;;;;;;4407098;28;654416;-69
2022/05/26 07:10:00;;;;;;;5.50;3.47;;;16.20;99.90;;;;;;4421391;28;654578;-70
2022/05/26 07:12:49;;;;;;;8.23;3.45;;;15.90;99.90;;;;;;4433230;28;654372;-68
2022/05/26 07:15:36;;;;;;;4.27;3.00;;;16.00;99.90;;;;;;4409010;28;654704;-70
2022/05/26 07:18:23;;;;;;;6.90;3.73;;;16.20;99.90;;;;;;4429789;28;655423;-68
2022/05/26 07:21:11;;;;;;;6.27;3.10;;;16.40;99.90;;;;;;4410804;28;654371;-68
2022/05/26 07:23:58;;;;;;;10.63;4.30;;;16.30;99.90;;;;;;4428002;28;654963;-68
2022/05/26 07:26:45;;;;;;;10.20;3.83;;;16.40;99.90;;;;;;4407354;28;655980;-70
2022/05/26 07:29:34;;;;;;;8.90;3.40;;;16.70;99.90;;;;;;4428472;28;656051;-70
2022/05/26 07:32:21;;;;;;;8.57;3.80;;;17.10;99.90;;;;;;4412339;28;655009;-69
2022/05/26 07:35:09;;;;;;;8.03;3.03;;;16.50;99.90;;;;;;4429600;28;655098;-69
2022/05/26 07:41:17;;;;;;;8.33;3.43;;;16.50;99.90;;;;;;4380736;28;655924;-69
2022/05/26 07:44:05;;;;;;;8.60;2.80;;;16.60;99.90;;;;;;4404141;28;655123;-69
2022/05/26 07:46:53;;;;;;;8.10;3.27;;;16.70;99.90;;;;;;4403377;28;655154;-68
2022/05/26 07:49:42;;;;;;;4.63;3.40;;;17.00;99.90;;;;;;4410158;28;654548;-69
2022/05/26 07:52:29;;;;;;;7.27;3.57;;;17.10;99.90;;;;;;4427809;28;654472;-69
2022/05/26 07:55:18;;;;;;;7.37;3.33;;;17.20;99.90;;;;;;4408398;28;654603;-71
2022/05/26 07:58:05;;;;;;;4.87;3.10;;;17.10;99.90;;;;;;4418297;28;654752;-71
2022/05/26 08:00:54;;;;;;;5.13;3.40;;;17.30;99.90;;;;;;4433374;28;655255;-69
2022/05/26 08:03:43;;;;;;;5.07;3.10;;;17.50;99.90;;;;;;4407835;28;654845;-68
2022/05/26 08:06:31;;;;;;;7.73;3.40;;;17.40;99.90;;;;;;4409836;28;654591;-70
2022/05/26 08:09:19;;;;;;;3.40;1.50;;;17.90;99.90;;;;;;4429884;28;654902;-69
2022/05/26 08:12:08;;;;;;;8.97;3.37;;;17.70;99.90;;;;;;4409227;28;654546;-68
2022/05/26 08:14:55;;;;;;;6.43;2.70;;;17.80;99.90;;;;;;4414507;28;654206;-70
2022/05/26 08:17:42;;;;;;;9.90;2.40;;;18.30;99.90;;;;;;4431041;28;654665;-69
2022/05/26 08:20:31;;;;;;;3.43;2.33;;;18.70;99.90;;;;;;4433173;28;654804;-69
2022/05/26 08:23:22;;;;;;;2.83;1.53;;;18.80;99.80;;;;;;4406432;28;654361;-69
2022/05/26 08:26:09;;;;;;;3.67;2.00;;;18.30;99.90;;;;;;4407591;28;654800;-69
2022/05/26 08:28:56;;;;;;;4.30;2.37;;;18.50;99.90;;;;;;4410067;28;654929;-69
2022/05/26 08:31:44;;;;;;;5.73;2.27;;;18.20;99.90;;;;;;4434205;28;654151;-68
2022/05/26 08:34:31;;;;;;;3.63;2.33;;;18.10;99.90;;;;;;4414659;28;654944;-68
2022/05/26 08:37:20;;;;;;;4.80;2.80;;;17.90;99.90;;;;;;4426243;28;656132;-69
2022/05/26 08:40:09;;;;;;;3.87;2.60;;;18.60;99.90;;;;;;4417154;28;654547;-71
2022/05/26 08:42:56;;;;;;;5.03;3.00;;;18.40;99.90;;;;;;4411875;28;654550;-69
2022/05/26 08:45:45;;;;;;;4.03;2.13;;;18.50;99.90;;;;;;4430955;28;655249;-69
2022/05/26 08:48:41;;;;;;;7.37;2.50;;;18.50;99.40;;;;;;4408996;28;654990;-69
2022/05/26 08:51:37;;;;;;;7.90;2.43;;;18.60;94.00;;;;;;4407819;28;654826;-71
2022/05/26 08:54:33;;;;;;;4.37;2.23;;;18.90;97.80;;;;;;4408614;28;654546;-70
2022/05/26 08:57:23;;;;;;;7.13;1.93;;;19.30;94.00;;;;;;4400192;28;654224;-71
2022/05/26 09:00:13;;;;;;;5.57;2.40;;;19.30;99.30;;;;;;4417786;28;654186;-70
2022/05/26 09:03:01;;;;;;;6.20;2.40;;;19.60;99.90;;;;;;4421389;28;654446;-70
2022/05/26 09:05:48;;;;;;;6.87;1.63;;;19.40;96.40;;;;;;4435467;28;655384;-71
2022/05/26 09:14:49;;;;;;;7.80;1.83;;;19.60;92.60;;;;;;4408352;28;654683;-70
2022/05/26 09:17:36;;;;;;;4.67;1.70;;;19.30;80.60;;;;;;4413487;28;654800;-69
2022/05/26 09:20:34;;;;;;;6.10;1.40;;;18.90;88.70;;;;;;4432052;28;654336;-70
2022/05/26 09:23:23;;;;;;;3.67;1.60;;;18.80;80.50;;;;;;4411823;28;654805;-70
2022/05/26 09:26:11;;;;;;;3.00;1.50;;;19.30;84.40;;;;;;4413333;28;655061;-69
2022/05/26 09:29:08;;;;;;;3.23;1.50;;;19.30;85.20;;;;;;4434949;28;655433;-69
2022/05/26 09:31:56;;;;;;;4.40;1.40;;;19.10;88.20;;;;;;4394489;28;654223;-71
2022/05/26 09:34:43;;;;;;;2.80;1.37;;;19.00;83.90;;;;;;4431258;28;656351;-69
2022/05/26 09:37:38;;;;;;;4.17;1.47;;;18.90;75.70;;;;;;4408784;28;654720;-70
2022/05/26 09:40:27;;;;;;;7.23;1.60;;;19.10;81.80;;;;;;4400564;28;654698;-70
2022/05/26 09:43:22;;;;;;;5.23;1.43;;;19.40;87.50;;;;;;4430808;28;655516;-69
2022/05/26 09:46:12;;;;;;;2.07;1.43;;;20.30;80.40;;;;;;4408238;28;655885;-69
2022/05/26 09:49:01;;;;;;;2.80;1.50;;;19.30;73.60;;;;;;4408472;28;654667;-69
2022/05/26 09:51:49;;;;;;;8.27;1.60;;;19.30;79.10;;;;;;4406201;28;654826;-70
2022/05/26 09:54:36;;;;;;;2.60;1.43;;;19.70;77.60;;;;;;4411176;28;654268;-70
2022/05/26 09:57:28;;;;;;;1.43;1.07;;;19.10;81.60;;;;;;4431215;28;655088;-69
2022/05/26 10:00:35;;;;;;;6.97;1.60;;;18.30;85.80;;;;;;4397673;28;654428;-70
2022/05/26 10:03:38;;;;;;;2.83;1.67;;;18.20;87.90;;;;;;4386365;28;654714;-68
2022/05/26 10:06:30;;;;;;;4.00;1.70;;;18.00;90.10;;;;;;4387622;28;654440;-69
2022/05/26 10:09:21;;;;;;;5.00;1.73;;;18.00;89.30;;;;;;4411468;28;655753;-69
2022/05/26 10:12:10;;;;;;;3.53;1.80;;;18.30;90.10;;;;;;4412692;28;654993;-68
2022/05/26 10:15:10;;;;;;;5.57;1.57;;;18.30;90.80;;;;;;4406776;28;655042;-69
2022/05/26 10:18:16;;;;;;;3.03;1.67;;;18.20;88.40;;;;;;4384682;28;655094;-69
2022/05/26 10:21:07;;;;;;;2.97;1.67;;;18.10;92.30;;;;;;4405652;28;654835;-68
2022/05/26 10:24:20;;;;;;;2.73;1.80;;;18.30;93.40;;;;;;4407279;28;654525;-69
2022/05/26 10:27:13;;;;;;;6.53;1.73;;;18.60;93.10;;;;;;4409276;28;655026;-69
2022/05/26 10:30:12;;;;;;;5.63;1.70;;;18.70;89.50;;;;;;4398057;28;654843;-70
2022/05/26 10:33:13;;;;;;;2.43;1.60;;;18.80;89.00;;;;;;4405820;28;654283;-68
2022/05/26 10:36:11;;;;;;;3.20;1.60;;;18.60;90.10;;;;;;4388909;28;655010;-70
2022/05/26 10:39:06;;;;;;;2.30;1.60;;;18.30;91.30;;;;;;4398661;28;654781;-69
2022/05/26 10:41:55;;;;;;;5.03;1.10;;;18.60;94.00;;;;;;4405007;28;655300;-69
2022/05/26 10:44:46;;;;;;;1.13;0.90;;;18.60;87.20;;;;;;4398418;28;656007;-69
2022/05/26 10:47:36;;;;;;;1.83;0.70;;;18.70;79.40;;;;;;4404193;28;655710;-69
2022/05/26 10:50:27;;;;;;;3.40;1.13;;;19.00;74.70;;;;;;4404192;28;655049;-69
2022/05/26 10:53:20;;;;;;;3.03;1.00;;;19.40;70.90;;;;;;4409268;28;654781;-69
2022/05/26 10:56:10;;;;;;;4.23;1.00;;;19.50;68.40;;;;;;4382971;28;655502;-70
2022/05/26 10:59:01;;;;;;;6.43;1.00;;;19.50;67.00;;;;;;4408739;28;654956;-69
2022/05/26 11:01:50;;;;;;;3.60;1.27;;;19.40;69.20;;;;;;4404560;28;655809;-69
2022/05/26 11:04:41;;;;;;;4.93;1.00;;;19.00;68.00;;;;;;4409782;28;655451;-69
2022/05/26 11:07:33;;;;;;;3.23;0.90;;;18.80;73.40;;;;;;4403422;28;655661;-69
2022/05/26 11:10:24;;;;;;;2.03;0.80;;;18.40;72.50;;;;;;4385198;28;655215;-69
2022/05/26 11:13:14;;;;;;;4.93;1.00;;;18.20;73.50;;;;;;4403816;28;654076;-68
2022/05/26 11:19:24;;;;;;;2.63;0.70;;;18.70;72.60;;;;;;4401747;28;655116;-69
2022/05/26 11:22:12;;;;;;;4.53;0.97;;;19.20;69.20;;;;;;4403537;28;654461;-70
2022/05/26 11:25:00;;;;;;;5.77;1.30;;;19.70;67.90;;;;;;4419661;28;654534;-70
2022/05/26 11:27:49;;;;;;;4.80;0.90;;;19.70;66.40;;;;;;4396772;28;656015;-69
2022/05/26 11:36:57;;;;;;;6.57;1.10;;;20.90;63.50;;;;;;4367473;28;654941;-69
2022/05/26 11:39:44;;;;;;;3.80;0.80;;;20.10;61.10;;;;;;4426352;28;654471;-68
2022/05/26 11:42:33;;;;;;;3.40;0.80;;;19.70;61.00;;;;;;4398884;28;655415;-69
2022/05/26 11:45:23;;;;;;;3.73;0.70;;;19.20;65.50;;;;;;4395604;28;655296;-69
2022/05/26 11:48:45;;;;;;;9.50;1.00;;;19.00;65.80;;;;;;4408835;28;654377;-70
2022/05/26 11:51:38;;;;;;;6.07;0.77;;;18.90;66.80;;;;;;4373295;28;654819;-69
2022/05/26 11:54:55;;;;;;;3.53;0.90;;;19.10;65.80;;;;;;4381892;28;654671;-70
2022/05/26 11:57:51;;;;;;;2.33;0.70;;;19.60;64.80;;;;;;4380100;28;654737;-69
2022/05/26 12:00:43;;;;;;;9.47;1.23;;;19.30;65.80;;;;;;4403621;28;654919;-69
2022/05/26 12:03:31;;;;;;;2.03;1.00;;;19.40;66.60;;;;;;4396391;28;654628;-70
2022/05/26 12:06:30;;;;;;;2.03;1.00;;;19.80;65.60;;;;;;4426197;28;654947;-69
2022/05/26 12:09:20;;;;;;;6.17;1.57;;;19.70;67.40;;;;;;4384209;28;656007;-70
2022/05/26 12:12:08;;;;;;;8.43;1.60;;;19.50;67.50;;;;;;4402001;28;655420;-69
2022/05/26 12:15:03;;;;;;;4.23;1.40;;;19.10;69.70;;;;;;4398227;28;655261;-69
2022/05/26 12:17:52;;;;;;;5.70;1.20;;;18.90;68.40;;;;;;4382435;28;654790;-70
2022/05/26 12:20:42;;;;;;;4.60;1.27;;;18.90;73.40;;;;;;4432522;28;653638;-69
2022/05/26 12:23:30;;;;;;;4.17;0.97;;;19.10;73.00;;;;;;4405153;28;654590;-68
2022/05/26 12:26:28;;;;;;;4.07;1.10;;;19.00;68.80;;;;;;4397685;28;655444;-69
2022/05/26 12:29:54;;;;;;;4.43;1.07;;;18.90;68.30;;;;;;4383636;28;654750;-69
2022/05/26 12:32:41;;;;;;;5.03;0.80;;;19.00;68.40;;;;;;4374282;28;654813;-69
2022/05/26 12:35:32;;;;;;;2.30;1.10;;;19.10;70.10;;;;;;4416946;28;655475;-69
2022/05/26 12:38:27;;;;;;;1.50;0.93;;;19.20;68.20;;;;;;4386503;28;654852;-69
2022/05/26 12:41:15;;;;;;;4.10;0.73;;;19.10;68.00;;;;;;4408483;28;654218;-69
2022/05/26 12:44:22;;;;;;;4.17;1.10;;;19.20;68.70;;;;;;4413261;28;654955;-68
2022/05/26 12:47:21;;;;;;;2.87;0.90;;;19.60;68.20;;;;;;4382376;28;654985;-70
2022/05/26 12:50:08;;;;;;;4.03;0.70;;;19.50;67.30;;;;;;4391694;28;654916;-69
2022/05/26 12:53:03;;;;;;;5.73;1.00;;;19.40;67.40;;;;;;4400928;28;654585;-70
2022/05/26 12:55:54;;;;;;;1.80;1.00;;;19.30;69.50;;;;;;4374102;28;655753;-70
2022/05/26 12:58:45;;;;;;;3.33;1.07;;;19.40;71.40;;;;;;4398209;28;654967;-69
2022/05/26 13:01:32;;;;;;;5.83;1.07;;;19.40;70.40;;;;;;4401273;28;655953;-69
2022/05/26 13:04:20;;;;;;;0.83;0.80;;;19.50;68.90;;;;;;4421501;28;654009;-70
2022/05/26 13:07:08;;;;;;;2.87;1.30;;;19.50;68.10;;;;;;4391949;28;654689;-69
2022/05/26 13:09:56;;;;;;;7.50;0.97;;;19.70;68.90;;;;;;4396094;28;654364;-69
2022/05/26 13:12:46;;;;;;;3.47;0.70;;;20.20;68.70;;;;;;4423742;28;655377;-70
2022/05/26 13:15:33;;;;;;;5.07;0.70;;;20.70;70.30;;;;;;4410049;28;654900;-68
2022/05/26 13:18:21;;;;;;;3.43;0.97;;;20.40;69.20;;;;;;4416234;28;655129;-69
2022/05/26 13:21:16;;;;;;;3.30;1.00;;;20.10;68.10;;;;;;4433975;28;654892;-69
2022/05/26 13:24:03;;;;;;;7.07;0.80;;;20.70;70.00;;;;;;4410323;28;655008;-69
2022/05/26 13:26:54;;;;;;;1.37;0.97;;;21.00;69.60;;;;;;4413709;28;654494;-70
2022/05/26 13:29:43;;;;;;;2.72;0.60;;;20.50;68.40;;;;;;4410660;28;654851;-69
2022/05/26 13:35:39;;;;;;;1.90;1.13;;;20.20;73.50;;;;;;4389419;28;654747;-69
2022/05/26 13:38:32;;;;;;;6.70;1.13;;;20.00;70.90;;;;;;4411091;28;655258;-69
2022/05/26 13:41:20;;;;;;;2.40;1.10;;;19.90;70.00;;;;;;4408890;28;654814;-69
2022/05/26 13:44:11;;;;;;;8.43;1.13;;;20.00;71.00;;;;;;4406890;28;655272;-69
2022/05/26 13:46:58;;;;;;;1.70;0.90;;;20.40;69.80;;;;;;4408983;28;655147;-69
2022/05/26 13:49:56;;;;;;;5.67;1.20;;;20.60;68.20;;;;;;4411355;28;654488;-70
2022/05/26 13:52:43;;;;;;;1.57;0.80;;;20.60;72.40;;;;;;4408756;28;654711;-68
2022/05/26 13:55:30;;;;;;;1.87;0.83;;;20.00;70.40;;;;;;4414085;28;654240;-70
2022/05/26 13:58:18;;;;;;;1.60;1.00;;;19.60;69.60;;;;;;4434477;28;655130;-68
2022/05/26 14:01:08;;;;;;;6.90;0.90;;;19.60;71.70;;;;;;4412992;28;655471;-69
2022/05/26 14:03:56;;;;;;;4.10;1.00;;;19.80;71.70;;;;;;4415574;28;655003;-69
2022/05/26 14:06:43;;;;;;;3.90;1.00;;;19.70;71.90;;;;;;4435490;28;654575;-68
2022/05/26 14:09:32;;;;;;;2.33;1.13;;;19.70;75.60;;;;;;4413502;28;654802;-69
2022/05/26 14:12:23;;;;;;;1.57;1.00;;;19.30;74.20;;;;;;4430805;28;656056;-69
2022/05/26 14:15:11;;;;;;;1.83;0.70;;;19.20;76.30;;;;;;4387433;28;654576;-68
2022/05/26 14:18:00;;;;;;;3.80;0.70;;;19.30;74.70;;;;;;4435225;28;654918;-68
2022/05/26 14:20:56;;;;;;;4.23;0.77;;;19.30;72.50;;;;;;4414308;28;655709;-68
2022/05/26 14:23:45;;;;;;;4.40;0.80;;;19.10;75.10;;;;;;4408827;28;655418;-69
2022/05/26 14:26:35;;;;;;;5.60;0.93;;;19.20;72.00;;;;;;4409158;28;655153;-68
2022/05/26 14:29:34;;;;;;;0.70;0.70;;;19.20;72.10;;;;;;4408860;28;654955;-69
2022/05/26 14:32:26;;;;;;;1.13;0.70;;;19.20;72.60;;;;;;4396722;28;654716;-69
2022/05/26 14:35:15;;;;;;;2.90;0.90;;;19.20;77.60;;;;;;4401999;28;654649;-69
2022/05/26 14:38:03;;;;;;;5.60;0.90;;;19.50;76.40;;;;;;4396559;28;655265;-70
2022/05/26 14:40:52;;;;;;;3.83;1.00;;;19.50;72.70;;;;;;4420116;28;654460;-70
2022/05/26 14:43:39;;;;;;;4.87;1.00;;;19.60;70.20;;;;;;4432778;28;654383;-69
2022/05/26 14:46:27;;;;;;;1.30;0.67;;;20.10;70.60;;;;;;4415335;28;654805;-69
2022/05/26 14:49:14;;;;;;;4.10;0.90;;;20.00;66.60;;;;;;4432236;28;654524;-69
2022/05/26 14:52:03;;;;;;;2.13;0.90;;;19.70;67.00;;;;;;4414694;28;654462;-68
2022/05/26 14:58:08;;;;;;;2.10;0.70;;;19.20;70.30;;;;;;4305663;28;655564;-68
2022/05/26 15:00:57;;;;;;;3.33;1.00;;;19.20;73.20;;;;;;4426232;28;654587;-69
2022/05/26 15:03:44;;;;;;;3.87;0.80;;;19.20;74.10;;;;;;4450679;28;654378;-68
2022/05/26 15:06:38;;;;;;;2.90;0.80;;;19.10;73.50;;;;;;4432463;28;654482;-69
2022/05/26 15:09:28;;;;;;;2.10;0.80;;;19.10;73.10;;;;;;4411823;28;654461;-69